createdAt,value
2023-05-16T00:01:12.794Z,100450.91
2023-05-16T00:03:39.677Z,100450.09
2023-05-16T00:06:06.640Z,100443.66
2023-05-16T00:08:33.429Z,100450.16
2023-05-16T00:11:00.205Z,100449.06
2023-05-16T00:13:27.101Z,100452.81
2023-05-16T00:15:54.965Z,100451.19
2023-05-16T00:18:23.742Z,100456.94
2023-05-16T00:20:51.955Z,100454.09
2023-05-16T00:23:18.667Z,100451.22
2023-05-16T00:25:47.017Z,100444.53
2023-05-16T00:28:14.437Z,100451.91
2023-05-16T00:30:41.446Z,100450.06
2023-05-16T00:33:08.361Z,100447.94
2023-05-16T00:35:35.127Z,100456.03
2023-05-16T00:38:01.925Z,100456.03
2023-05-16T00:40:28.857Z,100444.97
2023-05-16T00:42:55.859Z,100447.06
2023-05-16T00:45:22.664Z,100444.38
2023-05-16T00:47:50.502Z,100448.69
2023-05-16T00:50:18.437Z,100447.59
2023-05-16T00:52:45.200Z,100436.53
2023-05-16T00:55:12.113Z,100440.28
2023-05-16T00:57:41.190Z,100436.00
2023-05-16T01:00:10.746Z,100439.84
2023-05-16T01:02:38.223Z,100438.81
2023-05-16T01:05:05.491Z,100441.09
2023-05-16T01:07:32.245Z,100451.44
2023-05-16T01:09:59.999Z,100456.34
2023-05-16T01:12:49.674Z,100461.50
2023-05-16T01:15:28.739Z,100455.59
2023-05-16T01:18:26.806Z,100463.91
2023-05-16T01:20:56.939Z,100459.56
2023-05-16T01:23:41.059Z,100454.69
2023-05-16T01:26:10.871Z,100451.97
2023-05-16T01:28:38.638Z,100456.81
2023-05-16T01:31:06.107Z,100463.81
2023-05-16T01:33:32.828Z,100458.94
2023-05-16T01:36:40.432Z,100462.75
2023-05-16T01:39:41.920Z,100466.56
2023-05-16T01:42:14.741Z,100461.19
2023-05-16T01:45:00.151Z,100469.78
2023-05-16T01:47:28.103Z,100470.59
2023-05-16T01:50:08.793Z,100470.34
2023-05-16T01:52:42.711Z,100474.69
2023-05-16T01:55:15.104Z,100473.66
2023-05-16T01:57:43.407Z,100479.09
2023-05-16T02:00:11.229Z,100479.19
2023-05-16T02:02:40.932Z,100480.34
2023-05-16T02:05:09.147Z,100480.63
2023-05-16T02:07:36.532Z,100479.88
2023-05-16T02:10:04.863Z,100476.94
2023-05-16T02:12:35.143Z,100482.91
2023-05-16T02:15:01.924Z,100482.66
2023-05-16T02:17:28.618Z,100475.41
2023-05-16T02:19:55.386Z,100475.41
2023-05-16T02:22:22.275Z,100473.03
2023-05-16T02:24:48.914Z,100479.75
2023-05-16T02:27:15.698Z,100479.53
2023-05-16T02:29:42.336Z,100474.69
2023-05-16T02:32:09.108Z,100484.94
2023-05-16T02:34:35.791Z,100483.88
2023-05-16T02:37:02.488Z,100475.84
2023-05-16T02:39:30.076Z,100475.31
2023-05-16T02:41:56.787Z,100481.75
2023-05-16T02:44:23.619Z,100486.09
2023-05-16T02:46:50.299Z,100484.22
2023-05-16T02:49:17.124Z,100483.44
2023-05-16T02:51:45.253Z,100485.59
2023-05-16T02:54:11.897Z,100481.00
2023-05-16T02:56:38.756Z,100484.50
2023-05-16T02:59:08.985Z,100488.81
2023-05-16T03:01:35.742Z,100495.63
2023-05-16T03:04:02.816Z,100495.91
2023-05-16T03:06:30.528Z,100492.69
2023-05-16T03:08:59.490Z,100491.63
2023-05-16T03:11:28.984Z,100486.50
2023-05-16T03:13:55.676Z,100493.56
2023-05-16T03:16:24.192Z,100498.66
2023-05-16T03:18:51.789Z,100489.75
2023-05-16T03:21:18.496Z,100495.16
2023-05-16T03:23:45.213Z,100497.06
2023-05-16T03:26:11.919Z,100497.09
2023-05-16T03:28:38.611Z,100501.09
2023-05-16T03:31:05.485Z,100497.06
2023-05-16T03:33:32.446Z,100505.69
2023-05-16T03:35:59.218Z,100500.88
2023-05-16T03:38:26.077Z,100503.84
2023-05-16T03:40:53.148Z,100504.09
2023-05-16T03:43:19.893Z,100514.31
2023-05-16T03:45:46.659Z,100513.00
2023-05-16T03:48:13.591Z,100522.41
2023-05-16T03:50:41.175Z,100529.94
2023-05-16T03:53:08.997Z,100519.16
2023-05-16T03:55:35.986Z,100519.66
2023-05-16T03:58:02.924Z,100523.97
2023-05-16T04:00:29.935Z,100528.00
2023-05-16T04:02:57.026Z,100521.81
2023-05-16T04:05:24.063Z,100521.28
2023-05-16T04:07:51.296Z,100524.53
2023-05-16T04:10:18.458Z,100532.84
2023-05-16T04:12:45.625Z,100532.59
2023-05-16T04:15:13.361Z,100533.94
2023-05-16T04:17:40.699Z,100539.59
2023-05-16T04:20:07.729Z,100532.84
2023-05-16T04:22:34.388Z,100536.34
2023-05-16T04:25:01.327Z,100537.44
2023-05-16T04:27:29.045Z,100546.06
2023-05-16T04:29:56.224Z,100546.06
2023-05-16T04:32:23.979Z,100546.56
2023-05-16T04:34:54.267Z,100549.53
2023-05-16T04:37:20.984Z,100551.16
2023-05-16T04:39:47.780Z,100546.56
2023-05-16T04:42:14.541Z,100551.44
2023-05-16T04:44:42.245Z,100547.66
2023-05-16T04:47:09.449Z,100554.13
2023-05-16T04:49:36.374Z,100555.19
2023-05-16T04:52:03.133Z,100561.13
2023-05-16T04:54:29.873Z,100563.53
2023-05-16T04:56:57.348Z,100569.19
2023-05-16T04:59:24.046Z,100571.31
2023-05-16T05:01:50.990Z,100576.72
2023-05-16T05:04:17.747Z,100578.84
2023-05-16T05:06:44.492Z,100585.81
2023-05-16T05:09:11.289Z,100579.28
2023-05-16T05:11:38.064Z,100581.97
2023-05-16T05:14:04.792Z,100586.50
2023-05-16T05:16:31.769Z,100588.44
2023-05-16T05:18:59.798Z,100597.09
2023-05-16T05:21:26.609Z,100601.41
2023-05-16T05:23:53.298Z,100598.72
2023-05-16T05:26:21.308Z,100597.59
2023-05-16T05:29:01.111Z,100604.53
2023-05-16T05:31:31.302Z,100600.97
2023-05-16T05:33:57.975Z,100599.84
2023-05-16T05:36:24.806Z,100605.47
2023-05-16T05:38:51.560Z,100606.53
2023-05-16T05:41:18.225Z,100594.63
2023-05-16T05:43:44.893Z,100595.16
2023-05-16T05:46:11.747Z,100603.75
2023-05-16T05:48:38.741Z,100605.88
2023-05-16T05:51:05.918Z,100611.78
2023-05-16T05:53:32.595Z,100605.88
2023-05-16T05:55:59.357Z,100614.97
2023-05-16T05:58:26.212Z,100613.38
2023-05-16T06:00:52.939Z,100611.75
2023-05-16T06:03:21.325Z,100616.59
2023-05-16T06:05:48.348Z,100621.97
2023-05-16T06:08:15.202Z,100623.56
2023-05-16T06:10:41.849Z,100622.97
2023-05-16T06:13:08.476Z,100624.56
2023-05-16T06:15:35.259Z,100621.00
2023-05-16T06:18:02.209Z,100631.22
2023-05-16T06:20:29.151Z,100622.78
2023-05-16T06:22:56.498Z,100628.91
2023-05-16T06:25:23.231Z,100635.59
2023-05-16T06:27:50.162Z,100633.31
2023-05-16T06:30:16.903Z,100630.41
2023-05-16T06:32:43.866Z,100628.56
2023-05-16T06:35:10.857Z,100624.75
2023-05-16T06:37:37.583Z,100625.47
2023-05-16T06:40:04.845Z,100632.56
2023-05-16T06:42:31.555Z,100621.75
2023-05-16T06:44:58.526Z,100632.91
2023-05-16T06:47:25.605Z,100633.94
2023-05-16T06:49:52.690Z,100630.72
2023-05-16T06:52:19.496Z,100624.34
2023-05-16T06:54:46.262Z,100630.28
2023-05-16T06:57:13.553Z,100645.41
2023-05-16T06:59:40.396Z,100642.63
2023-05-16T07:02:07.154Z,100656.47
2023-05-16T07:04:36.616Z,100650.44
2023-05-16T07:07:04.176Z,100655.31
2023-05-16T07:09:31.402Z,100654.94
2023-05-16T07:11:58.272Z,100658.38
2023-05-16T07:14:25.271Z,100662.38
2023-05-16T07:16:52.051Z,100666.69
2023-05-16T07:19:18.941Z,100663.03
2023-05-16T07:21:45.775Z,100667.66
2023-05-16T07:24:12.711Z,100677.34
2023-05-16T07:26:39.458Z,100675.78
2023-05-16T07:29:06.140Z,100668.44
2023-05-16T07:31:32.995Z,100676.25
2023-05-16T07:33:59.852Z,100676.72
2023-05-16T07:36:26.689Z,100676.78
2023-05-16T07:38:53.424Z,100682.50
2023-05-16T07:41:20.154Z,100685.78
2023-05-16T07:43:47.068Z,100695.38
2023-05-16T07:46:14.570Z,100693.13
2023-05-16T07:48:41.510Z,100701.13
2023-05-16T07:51:08.444Z,100706.84
2023-05-16T07:53:35.164Z,100713.03
2023-05-16T07:56:02.571Z,100715.53
2023-05-16T07:58:29.518Z,100714.53
2023-05-16T08:00:56.515Z,100715.66
2023-05-16T08:03:23.517Z,100717.84
2023-05-16T08:05:51.847Z,100716.19
2023-05-16T08:08:19.277Z,100722.91
2023-05-16T08:10:46.108Z,100731.25
2023-05-16T08:13:13.253Z,100727.44
2023-05-16T08:15:40.152Z,100740.63
2023-05-16T08:18:14.474Z,100734.41
2023-05-16T08:20:42.275Z,100737.06
2023-05-16T08:23:09.511Z,100733.19
2023-05-16T08:25:36.370Z,100741.28
2023-05-16T08:28:03.202Z,100737.31
2023-05-16T08:30:31.293Z,100741.41
2023-05-16T08:32:58.356Z,100738.16
2023-05-16T08:35:25.988Z,100735.38
2023-05-16T08:37:53.902Z,100741.50
2023-05-16T08:40:22.379Z,100738.97
2023-05-16T08:42:49.458Z,100742.59
2023-05-16T08:45:16.655Z,100745.78
2023-05-16T08:47:45.469Z,100748.56
2023-05-16T08:50:14.614Z,100751.31
2023-05-16T08:52:42.396Z,100752.00
2023-05-16T08:55:11.607Z,100753.28
2023-05-16T08:57:39.263Z,100746.38
2023-05-16T09:00:12.307Z,100745.38
2023-05-16T09:02:44.733Z,100744.13
2023-05-16T09:05:13.498Z,100742.84
2023-05-16T09:07:41.681Z,100742.19
2023-05-16T09:10:08.903Z,100744.09
2023-05-16T09:12:36.150Z,100747.69
2023-05-16T09:15:08.358Z,100746.06
2023-05-16T09:17:43.983Z,100745.47
2023-05-16T09:20:11.638Z,100744.94
2023-05-16T09:22:39.250Z,100741.47
2023-05-16T09:25:12.623Z,100748.72
2023-05-16T09:27:42.309Z,100746.94
2023-05-16T09:30:10.053Z,100750.06
2023-05-16T09:32:37.311Z,100753.22
2023-05-16T09:35:04.770Z,100759.66
2023-05-16T09:37:31.558Z,100771.03
2023-05-16T09:39:58.505Z,100772.84
2023-05-16T09:42:25.840Z,100788.34
2023-05-16T09:44:56.289Z,100785.47
2023-05-16T09:47:23.100Z,100788.63
2023-05-16T09:49:54.124Z,100794.22
2023-05-16T09:52:21.053Z,100789.75
2023-05-16T09:54:51.189Z,100789.56
2023-05-16T09:57:22.048Z,100797.78
2023-05-16T09:59:48.863Z,100788.53
2023-05-16T10:02:16.410Z,100794.00
2023-05-16T10:04:43.339Z,100795.38
2023-05-16T10:07:10.619Z,100792.63
2023-05-16T10:09:40.764Z,100798.03
2023-05-16T10:12:11.719Z,100795.94
2023-05-16T10:14:42.467Z,100804.97
2023-05-16T10:17:14.538Z,100800.78
2023-05-16T10:19:42.372Z,100810.28
2023-05-16T10:22:12.327Z,100811.66
2023-05-16T10:24:57.210Z,100810.28
2023-05-16T10:27:25.950Z,100810.78
2023-05-16T10:29:54.980Z,100805.38
2023-05-16T10:32:25.537Z,100816.69
2023-05-16T10:34:53.437Z,100821.53
2023-05-16T10:37:20.504Z,100823.44
2023-05-16T10:39:48.156Z,100820.00
2023-05-16T10:42:18.363Z,100821.59
2023-05-16T10:44:54.660Z,100823.78
2023-05-16T10:47:22.663Z,100820.81
2023-05-16T10:49:49.617Z,100826.22
2023-05-16T10:52:19.456Z,100827.59
2023-05-16T10:54:52.476Z,100822.13
2023-05-16T10:57:23.472Z,100826.13
2023-05-16T10:59:52.189Z,100819.41
2023-05-16T11:02:24.612Z,100825.34
2023-05-16T11:04:53.612Z,100824.75
2023-05-16T11:07:22.850Z,100829.38
2023-05-16T11:10:10.596Z,100833.72
2023-05-16T11:12:45.383Z,100841.38
2023-05-16T11:15:24.844Z,100836.38
2023-05-16T11:18:04.515Z,100834.28
2023-05-16T11:20:32.576Z,100847.81
2023-05-16T11:23:21.389Z,100851.09
2023-05-16T11:25:51.658Z,100855.19
2023-05-16T11:28:22.834Z,100847.38
2023-05-16T11:30:52.112Z,100857.38
2023-05-16T11:33:19.332Z,100857.09
2023-05-16T11:36:14.567Z,100853.38
2023-05-16T11:38:43.909Z,100847.47
2023-05-16T11:41:11.753Z,100857.22
2023-05-16T11:43:43.889Z,100856.44
2023-05-16T11:46:16.333Z,100858.88
2023-05-16T11:48:45.430Z,100865.88
2023-05-16T11:51:12.375Z,100864.28
2023-05-16T11:53:39.738Z,100863.19
2023-05-16T11:56:08.757Z,100872.88
2023-05-16T11:58:36.901Z,100867.75
2023-05-16T12:01:05.001Z,100864.53
2023-05-16T12:03:35.837Z,100866.69
2023-05-16T12:06:03.260Z,100868.59
2023-05-16T12:08:30.839Z,100867.78
2023-05-16T12:10:58.764Z,100869.66
2023-05-16T12:13:26.079Z,100868.28
2023-05-16T12:15:55.194Z,100870.75
2023-05-16T12:18:24.478Z,100872.88
2023-05-16T12:20:52.637Z,100883.09
2023-05-16T12:23:21.091Z,100884.91
2023-05-16T12:25:49.416Z,100877.47
2023-05-16T12:28:16.860Z,100876.06
2023-05-16T12:30:44.937Z,100870.69
2023-05-16T12:33:14.358Z,100871.19
2023-05-16T12:35:45.479Z,100872.88
2023-05-16T12:38:14.405Z,100871.94
2023-05-16T12:40:43.357Z,100876.34
2023-05-16T12:43:15.654Z,100882.66
2023-05-16T12:45:43.394Z,100880.34
2023-05-16T12:48:14.580Z,100875.25
2023-05-16T12:50:42.010Z,100877.81
2023-05-16T12:53:14.057Z,100868.34
2023-05-16T12:55:42.760Z,100874.25
2023-05-16T12:58:15.346Z,100872.84
2023-05-16T13:00:43.127Z,100872.34
2023-05-16T13:03:10.235Z,100868.34
2023-05-16T13:05:37.741Z,100869.06
2023-05-16T13:08:05.050Z,100876.31
2023-05-16T13:10:32.272Z,100878.94
2023-05-16T13:13:00.204Z,100880.94
2023-05-16T13:15:28.910Z,100883.47
2023-05-16T13:17:56.187Z,100880.91
2023-05-16T13:20:22.935Z,100875.28
2023-05-16T13:22:49.725Z,100878.88
2023-05-16T13:25:17.901Z,100875.69
2023-05-16T13:27:44.746Z,100883.47
2023-05-16T13:30:11.841Z,100887.19
2023-05-16T13:32:38.716Z,100882.09
2023-05-16T13:35:06.257Z,100891.25
2023-05-16T13:37:33.621Z,100877.16
2023-05-16T13:40:00.854Z,100884.81
2023-05-16T13:42:27.719Z,100875.75
2023-05-16T13:44:54.416Z,100870.38
2023-05-16T13:47:22.126Z,100885.88
2023-05-16T13:49:49.178Z,100878.97
2023-05-16T13:52:16.935Z,100879.38
2023-05-16T13:54:43.676Z,100875.66
2023-05-16T13:57:10.650Z,100869.59
2023-05-16T14:00:05.652Z,100869.88
2023-05-16T14:02:26.556Z,100865.38
2023-05-16T14:04:53.926Z,100866.41
2023-05-16T14:07:20.943Z,100868.97
2023-05-16T14:09:47.789Z,100865.91
2023-05-16T14:12:15.195Z,100859.56
2023-05-16T14:14:41.971Z,100850.84
2023-05-16T14:17:08.839Z,100854.97
2023-05-16T14:19:36.478Z,100858.25
2023-05-16T14:22:03.844Z,100848.47
2023-05-16T14:24:30.754Z,100860.44
2023-05-16T14:26:58.521Z,100843.34
2023-05-16T14:29:25.893Z,100848.16
2023-05-16T14:31:53.435Z,100842.13
2023-05-16T14:34:23.059Z,100844.00
2023-05-16T14:36:50.914Z,100838.13
2023-05-16T14:39:20.351Z,100846.06
2023-05-16T14:41:47.153Z,100847.34
2023-05-16T14:44:14.027Z,100840.16
2023-05-16T14:46:41.306Z,100839.25
2023-05-16T14:49:09.461Z,100843.47
2023-05-16T14:51:36.542Z,100837.00
2023-05-16T14:54:04.281Z,100835.25
2023-05-16T14:56:34.361Z,100833.34
2023-05-16T14:59:01.696Z,100831.47
2023-05-16T15:01:28.806Z,100833.97
2023-05-16T15:03:56.727Z,100839.41
2023-05-16T15:06:25.055Z,100835.69
2023-05-16T15:08:52.260Z,100833.69
2023-05-16T15:11:22.272Z,100834.03
2023-05-16T15:13:49.331Z,100832.38
2023-05-16T15:16:16.800Z,100832.38
2023-05-16T15:18:44.238Z,100815.53
2023-05-16T15:21:11.354Z,100822.00
2023-05-16T15:23:38.448Z,100809.84
2023-05-16T15:26:05.489Z,100813.06
2023-05-16T15:28:32.378Z,100806.09
2023-05-16T15:30:59.439Z,100811.31
2023-05-16T15:33:29.262Z,100809.25
2023-05-16T15:35:56.311Z,100808.56
2023-05-16T15:38:23.278Z,100816.06
2023-05-16T15:40:57.920Z,100804.84
2023-05-16T15:43:33.089Z,100816.34
2023-05-16T15:46:02.772Z,100823.94
2023-05-16T15:48:29.558Z,100816.28
2023-05-16T15:51:04.664Z,100825.16
2023-05-16T15:53:31.589Z,100815.63
2023-05-16T15:55:58.425Z,100814.50
2023-05-16T15:58:26.016Z,100823.38
2023-05-16T16:00:55.071Z,100819.88
2023-05-16T16:03:22.063Z,100829.94
2023-05-16T16:05:49.765Z,100829.53
2023-05-16T16:08:20.687Z,100839.88
2023-05-16T16:10:47.631Z,100835.06
2023-05-16T16:13:15.138Z,100834.88
2023-05-16T16:15:42.331Z,100846.56
2023-05-16T16:18:09.581Z,100846.31
2023-05-16T16:20:36.629Z,100845.13
2023-05-16T16:23:03.550Z,100844.72
2023-05-16T16:25:30.912Z,100839.09
2023-05-16T16:28:00.150Z,100836.69
2023-05-16T16:30:27.969Z,100853.09
2023-05-16T16:32:55.077Z,100842.25
2023-05-16T16:35:27.206Z,100854.84
2023-05-16T16:38:05.758Z,100854.31
2023-05-16T16:40:35.580Z,100858.75
2023-05-16T16:43:02.685Z,100853.34
2023-05-16T16:45:29.954Z,100852.66
2023-05-16T16:47:58.019Z,100856.81
2023-05-16T16:50:25.610Z,100859.44
2023-05-16T16:53:02.229Z,100854.84
2023-05-16T16:55:29.681Z,100863.00
2023-05-16T16:57:57.050Z,100871.16
2023-05-16T17:00:24.255Z,100870.22
2023-05-16T17:02:51.892Z,100878.38
2023-05-16T17:05:19.758Z,100874.53
2023-05-16T17:07:46.442Z,100875.28
2023-05-16T17:10:13.470Z,100874.88
2023-05-16T17:12:46.883Z,100880.00
2023-05-16T17:15:16.442Z,100876.03
2023-05-16T17:17:44.137Z,100878.59
2023-05-16T17:20:12.712Z,100884.16
2023-05-16T17:22:40.068Z,100880.22
2023-05-16T17:25:08.017Z,100889.69
2023-05-16T17:27:34.754Z,100889.47
2023-05-16T17:30:01.613Z,100893.19
2023-05-16T17:32:28.515Z,100899.13
2023-05-16T17:34:55.432Z,100900.44
2023-05-16T17:37:22.430Z,100903.03
2023-05-16T17:39:50.487Z,100899.44
2023-05-16T17:42:17.278Z,100901.13
2023-05-16T17:44:44.073Z,100903.66
2023-05-16T17:47:11.468Z,100902.38
2023-05-16T17:49:38.442Z,100900.28
2023-05-16T17:52:05.832Z,100907.88
2023-05-16T17:54:32.839Z,100910.59
2023-05-16T17:57:00.573Z,100901.47
2023-05-16T17:59:27.471Z,100904.78
2023-05-16T18:01:57.458Z,100913.72
2023-05-16T18:04:24.604Z,100916.19
2023-05-16T18:06:54.690Z,100921.84
2023-05-16T18:09:21.921Z,100928.63
2023-05-16T18:11:49.175Z,100924.34
2023-05-16T18:14:17.183Z,100922.47
2023-05-16T18:16:44.047Z,100935.41
2023-05-16T18:19:11.100Z,100929.75
2023-05-16T18:21:39.384Z,100937.09
2023-05-16T18:24:08.444Z,100934.97
2023-05-16T18:26:36.744Z,100941.47
2023-05-16T18:29:03.852Z,100942.84
2023-05-16T18:31:33.657Z,100948.25
2023-05-16T18:34:03.871Z,100947.75
2023-05-16T18:36:31.067Z,100946.69
2023-05-16T18:38:57.830Z,100950.44
2023-05-16T18:41:24.621Z,100948.81
2023-05-16T18:43:51.440Z,100955.28
2023-05-16T18:46:18.215Z,100956.31
2023-05-16T18:48:45.067Z,100960.59
2023-05-16T18:51:12.659Z,100963.28
2023-05-16T18:53:40.567Z,100970.81
2023-05-16T18:56:07.418Z,100971.91
2023-05-16T18:58:34.378Z,100977.56
2023-05-16T19:01:01.822Z,100984.63
2023-05-16T19:03:28.814Z,100991.34
2023-05-16T19:05:55.997Z,100988.13
2023-05-16T19:08:25.585Z,100992.72
2023-05-16T19:10:54.311Z,100997.84
2023-05-16T19:13:22.484Z,101006.00
2023-05-16T19:15:49.874Z,101011.94
2023-05-16T19:18:18.085Z,101017.09
2023-05-16T19:20:45.718Z,101020.31
2023-05-16T19:23:12.656Z,101018.19
2023-05-16T19:25:45.646Z,101028.72
2023-05-16T19:28:13.002Z,101027.63
2023-05-16T19:30:40.672Z,101035.19
2023-05-16T19:33:07.667Z,101038.97
2023-05-16T19:35:34.781Z,101041.41
2023-05-16T19:38:01.913Z,101047.63
2023-05-16T19:40:29.921Z,101053.56
2023-05-16T19:42:57.428Z,101050.88
2023-05-16T19:45:24.259Z,101058.44
2023-05-16T19:47:51.374Z,101054.94
2023-05-16T19:50:19.268Z,101055.47
2023-05-16T19:52:46.349Z,101060.59
2023-05-16T19:55:13.346Z,101075.72
2023-05-16T19:57:41.460Z,101074.09
2023-05-16T20:00:17.988Z,101079.50
2023-05-16T20:02:44.951Z,101085.94
2023-05-16T20:05:12.058Z,101081.03
2023-05-16T20:07:40.763Z,101093.38
2023-05-16T20:10:08.952Z,101102.47
2023-05-16T20:12:36.240Z,101107.81
2023-05-16T20:15:09.515Z,101111.59
2023-05-16T20:17:37.184Z,101111.31
2023-05-16T20:20:05.605Z,101122.13
2023-05-16T20:22:32.518Z,101107.88
2023-05-16T20:25:04.309Z,101121.84
2023-05-16T20:27:32.002Z,101127.72
2023-05-16T20:29:59.339Z,101121.72
2023-05-16T20:32:28.361Z,101116.25
2023-05-16T20:34:56.974Z,101124.81
2023-05-16T20:37:26.838Z,101123.72
2023-05-16T20:39:54.555Z,101122.63
2023-05-16T20:42:22.225Z,101128.19
2023-05-16T20:44:49.105Z,101131.09
2023-05-16T20:47:17.123Z,101131.59
2023-05-16T20:49:44.315Z,101133.22
2023-05-16T20:52:11.152Z,101137.75
2023-05-16T20:54:38.098Z,101136.63
2023-05-16T20:57:05.367Z,101142.50
2023-05-16T20:59:32.485Z,101142.22
2023-05-16T21:01:59.554Z,101144.06
2023-05-16T21:04:26.512Z,101143.25
2023-05-16T21:06:53.486Z,101147.50
2023-05-16T21:09:20.487Z,101155.84
2023-05-16T21:11:47.188Z,101148.28
2023-05-16T21:14:14.504Z,101152.78
2023-05-16T21:16:41.765Z,101150.06
2023-05-16T21:19:08.788Z,101159.72
2023-05-16T21:21:35.663Z,101152.66
2023-05-16T21:24:02.455Z,101159.59
2023-05-16T21:26:29.225Z,101156.84
2023-05-16T21:28:56.236Z,101157.34
2023-05-16T21:31:23.906Z,101162.66
2023-05-16T21:33:52.519Z,101172.81
2023-05-16T21:36:20.345Z,101169.00
2023-05-16T21:38:47.499Z,101176.44
2023-05-16T21:41:14.719Z,101174.75
2023-05-16T21:43:41.515Z,101177.34
2023-05-16T21:46:08.307Z,101177.31
2023-05-16T21:48:35.113Z,101185.03
2023-05-16T21:51:02.144Z,101190.09
2023-05-16T21:53:28.947Z,101186.00
2023-05-16T21:55:55.824Z,101191.56
2023-05-16T21:58:23.438Z,101185.06
2023-05-16T22:00:50.310Z,101194.66
2023-05-16T22:03:19.154Z,101202.16
2023-05-16T22:05:46.856Z,101195.19
2023-05-16T22:08:13.919Z,101197.78
2023-05-16T22:10:40.754Z,101197.44
2023-05-16T22:13:08.149Z,101196.06
2023-05-16T22:15:35.174Z,101199.72
2023-05-16T22:18:02.253Z,101207.72
2023-05-16T22:20:29.837Z,101200.41
2023-05-16T22:22:56.825Z,101213.00
2023-05-16T22:25:24.153Z,101209.16
2023-05-16T22:27:50.946Z,101217.97
2023-05-16T22:30:18.472Z,101204.22
2023-05-16T22:32:46.941Z,101210.06
2023-05-16T22:35:15.080Z,101210.00
2023-05-16T22:37:41.953Z,101211.53
2023-05-16T22:40:09.275Z,101206.97
2023-05-16T22:42:36.038Z,101215.03
2023-05-16T22:45:04.072Z,101210.97
2023-05-16T22:47:31.142Z,101214.13
2023-05-16T22:49:58.016Z,101212.25
2023-05-16T22:52:24.853Z,101214.69
2023-05-16T22:54:51.755Z,101218.44
2023-05-16T22:57:18.464Z,101218.44
2023-05-16T22:59:45.205Z,101225.94
2023-05-16T23:02:11.899Z,101226.16
2023-05-16T23:04:38.936Z,101214.53
2023-05-16T23:07:05.813Z,101223.28
2023-05-16T23:09:32.631Z,101220.84
2023-05-16T23:11:59.405Z,101223.78
2023-05-16T23:14:26.530Z,101229.38
2023-05-16T23:16:53.438Z,101236.88
2023-05-16T23:19:20.367Z,101228.00
2023-05-16T23:21:47.191Z,101224.50
2023-05-16T23:24:15.566Z,101222.53
2023-05-16T23:26:43.697Z,101234.00
2023-05-16T23:29:10.572Z,101235.53
2023-05-16T23:31:37.312Z,101238.44
2023-05-16T23:34:04.182Z,101242.91
2023-05-16T23:36:31.201Z,101244.44
2023-05-16T23:38:58.075Z,101248.72
2023-05-16T23:41:24.870Z,101252.94
2023-05-16T23:43:51.562Z,101254.25
2023-05-16T23:46:18.225Z,101269.75
2023-05-16T23:48:45.116Z,101258.69
2023-05-16T23:51:11.890Z,101270.47
2023-05-16T23:53:38.630Z,101268.25
2023-05-16T23:56:05.596Z,101274.06
2023-05-16T23:58:32.444Z,101264.38
